createdAt,value
2017-08-18T00:00:59.610Z,81.08
2017-08-18T00:03:27.982Z,81.56
2017-08-18T00:05:56.778Z,81.08
2017-08-18T00:08:25.126Z,81.12
2017-08-18T00:10:53.502Z,81.21
2017-08-18T00:13:22.959Z,80.80
2017-08-18T00:15:51.345Z,81.04
2017-08-18T00:18:19.707Z,80.63
2017-08-18T00:20:48.604Z,81.49
2017-08-18T00:23:16.945Z,80.75
2017-08-18T00:25:46.077Z,80.68
2017-08-18T00:28:15.063Z,79.91
2017-08-18T00:30:43.409Z,79.89
2017-08-18T00:33:12.532Z,79.89
2017-08-18T00:35:41.305Z,79.82
2017-08-18T00:38:09.664Z,80.12
2017-08-18T00:40:38.835Z,80.79
2017-08-18T00:43:07.569Z,80.06
2017-08-18T00:45:36.036Z,80.30
2017-08-18T00:48:04.391Z,80.18
2017-08-18T00:50:33.552Z,80.56
2017-08-18T00:53:01.929Z,80.68
2017-08-18T00:55:30.312Z,80.56
2017-08-18T00:57:58.948Z,80.39
2017-08-18T01:00:27.313Z,80.18
2017-08-18T01:02:55.666Z,80.64
2017-08-18T01:05:24.310Z,81.36
2017-08-18T01:07:52.681Z,81.10
2017-08-18T01:10:21.039Z,81.22
2017-08-18T01:12:49.987Z,81.28
2017-08-18T01:15:18.345Z,81.63
2017-08-18T01:17:46.693Z,82.18
2017-08-18T01:20:16.433Z,81.79
2017-08-18T01:22:44.806Z,81.67
2017-08-18T01:25:13.187Z,81.97
2017-08-18T01:27:41.854Z,81.40
2017-08-18T01:30:10.251Z,81.28
2017-08-18T01:32:38.625Z,80.90
2017-08-18T01:35:07.552Z,81.83
2017-08-18T01:37:35.899Z,80.72
2017-08-18T01:40:04.267Z,80.76
2017-08-18T01:42:33.210Z,80.79
2017-08-18T01:45:01.574Z,80.85
2017-08-18T01:47:29.896Z,80.42
2017-08-18T01:49:58.522Z,80.46
2017-08-18T01:52:26.870Z,80.39
2017-08-18T01:54:55.265Z,80.16
2017-08-18T01:57:24.302Z,79.58
2017-08-18T01:59:52.666Z,79.70
2017-08-18T02:02:20.993Z,80.01
2017-08-18T02:04:49.644Z,80.22
2017-08-18T02:07:17.990Z,79.79
2017-08-18T02:09:46.348Z,80.78
2017-08-18T02:12:15.016Z,80.21
2017-08-18T02:14:43.381Z,79.72
2017-08-18T02:17:11.738Z,79.54
2017-08-18T02:19:40.535Z,80.20
2017-08-18T02:22:08.883Z,80.10
2017-08-18T02:24:37.235Z,79.74
2017-08-18T02:27:05.873Z,79.50
2017-08-18T02:29:34.233Z,79.23
2017-08-18T02:32:03.366Z,79.19
2017-08-18T02:34:32.150Z,80.03
2017-08-18T02:37:00.522Z,79.93
2017-08-18T02:39:28.894Z,79.16
2017-08-18T02:41:57.683Z,79.57
2017-08-18T02:44:26.050Z,80.19
2017-08-18T02:46:54.410Z,80.06
2017-08-18T02:49:23.235Z,79.23
2017-08-18T02:51:51.580Z,79.64
2017-08-18T02:54:20.698Z,79.96
2017-08-18T02:56:49.494Z,79.27
2017-08-18T02:59:17.871Z,78.97
2017-08-18T03:01:46.225Z,78.75
2017-08-18T03:04:15.030Z,77.90
2017-08-18T03:06:43.381Z,78.09
2017-08-18T03:09:11.740Z,78.80
2017-08-18T03:11:40.588Z,78.44
2017-08-18T03:14:08.935Z,78.99
2017-08-18T03:16:37.307Z,78.98
2017-08-18T03:19:05.943Z,78.85
2017-08-18T03:21:34.301Z,79.36
2017-08-18T03:24:02.632Z,79.54
2017-08-18T03:26:31.481Z,79.80
2017-08-18T03:28:59.818Z,78.89
2017-08-18T03:31:28.157Z,78.77
2017-08-18T03:33:56.924Z,78.44
2017-08-18T03:36:25.302Z,79.43
2017-08-18T03:38:53.667Z,80.45
2017-08-18T03:41:22.489Z,80.55
2017-08-18T03:43:50.879Z,80.20
2017-08-18T03:46:19.230Z,80.68
2017-08-18T03:48:47.991Z,80.04
2017-08-18T03:51:16.347Z,80.05
2017-08-18T03:53:44.713Z,80.55
2017-08-18T03:56:13.347Z,80.82
2017-08-18T03:58:41.701Z,80.39
2017-08-18T04:01:10.038Z,80.08
2017-08-18T04:03:38.720Z,80.03
2017-08-18T04:06:07.119Z,79.78
2017-08-18T04:08:35.490Z,79.61
2017-08-18T04:11:04.577Z,80.59
2017-08-18T04:13:32.926Z,81.70
2017-08-18T04:16:01.274Z,81.05
2017-08-18T04:18:29.893Z,80.00
2017-08-18T04:20:58.251Z,79.46
2017-08-18T04:23:26.626Z,79.57
2017-08-18T04:25:55.304Z,79.96
2017-08-18T04:28:23.648Z,79.80
2017-08-18T04:30:52.018Z,79.47
2017-08-18T04:33:20.896Z,79.47
2017-08-18T04:35:49.264Z,79.98
2017-08-18T04:38:17.599Z,80.33
2017-08-18T04:40:46.248Z,80.61
2017-08-18T04:43:14.602Z,80.16
2017-08-18T04:45:42.937Z,80.52
2017-08-18T04:48:11.791Z,80.64
2017-08-18T04:50:40.173Z,80.46
2017-08-18T04:53:08.520Z,80.60
2017-08-18T04:55:37.384Z,80.52
2017-08-18T04:58:05.730Z,80.37
2017-08-18T05:00:34.060Z,80.19
2017-08-18T05:03:02.678Z,79.26
2017-08-18T05:05:31.022Z,78.69
2017-08-18T05:07:59.379Z,78.37
2017-08-18T05:10:28.143Z,78.28
2017-08-18T05:12:56.488Z,77.34
2017-08-18T05:15:25.609Z,78.03
2017-08-18T05:17:54.316Z,77.75
2017-08-18T05:20:22.680Z,77.43
2017-08-18T05:22:51.022Z,77.22
2017-08-18T05:25:19.655Z,76.97
2017-08-18T05:27:47.990Z,77.67
2017-08-18T05:30:17.129Z,77.36
2017-08-18T05:32:45.912Z,77.78
2017-08-18T05:35:14.271Z,76.97
2017-08-18T05:37:42.620Z,76.38
2017-08-18T05:40:11.753Z,77.66
2017-08-18T05:42:40.127Z,76.99
2017-08-18T05:45:08.476Z,77.12
2017-08-18T05:47:37.351Z,77.26
2017-08-18T05:50:05.736Z,76.23
2017-08-18T05:52:34.095Z,76.50
2017-08-18T05:55:02.762Z,76.15
2017-08-18T05:57:31.143Z,75.58
2017-08-18T05:59:59.510Z,75.40
2017-08-18T06:02:28.323Z,75.88
2017-08-18T06:04:56.671Z,74.71
2017-08-18T06:07:25.019Z,74.92
2017-08-18T06:09:53.665Z,74.90
2017-08-18T06:12:22.012Z,75.63
2017-08-18T06:14:50.358Z,74.36
2017-08-18T06:17:19.008Z,75.30
2017-08-18T06:19:47.378Z,74.90
2017-08-18T06:22:15.737Z,73.84
2017-08-18T06:24:44.701Z,75.47
2017-08-18T06:27:13.078Z,74.98
2017-08-18T06:29:41.433Z,73.64
2017-08-18T06:32:10.085Z,73.46
2017-08-18T06:34:38.446Z,73.90
2017-08-18T06:37:06.849Z,73.53
2017-08-18T06:39:35.717Z,71.65
2017-08-18T06:42:04.058Z,72.15
2017-08-18T06:44:32.407Z,71.37
2017-08-18T06:47:01.370Z,71.20
2017-08-18T06:49:29.711Z,71.46
2017-08-18T06:51:58.053Z,70.66
2017-08-18T06:54:26.685Z,70.55
2017-08-18T06:56:55.032Z,69.54
2017-08-18T06:59:23.395Z,68.42
2017-08-18T07:01:52.069Z,67.33
2017-08-18T07:04:20.407Z,64.83
2017-08-18T07:06:49.552Z,65.42
2017-08-18T07:09:18.751Z,65.20
2017-08-18T07:11:47.076Z,64.32
2017-08-18T07:14:16.207Z,65.04
2017-08-18T07:16:45.005Z,67.27
2017-08-18T07:19:13.351Z,67.80
2017-08-18T07:21:41.717Z,68.16
2017-08-18T07:24:10.441Z,67.83
2017-08-18T07:26:38.793Z,67.99
2017-08-18T07:29:07.929Z,67.70
2017-08-18T07:31:36.864Z,68.23
2017-08-18T07:34:05.231Z,68.73
2017-08-18T07:36:33.703Z,67.79
2017-08-18T07:39:02.567Z,68.07
2017-08-18T07:41:31.093Z,66.87
2017-08-18T07:43:59.438Z,67.92
2017-08-18T07:46:28.124Z,68.59
2017-08-18T07:48:56.488Z,68.06
2017-08-18T07:51:24.835Z,67.84
2017-08-18T07:53:54.560Z,66.70
2017-08-18T07:56:22.932Z,69.19
2017-08-18T07:58:51.277Z,68.34
2017-08-18T08:01:19.894Z,68.18
2017-08-18T08:03:48.256Z,66.40
2017-08-18T08:06:16.626Z,65.94
2017-08-18T08:08:45.287Z,66.41
2017-08-18T08:11:13.690Z,67.62
2017-08-18T08:13:42.076Z,66.06
2017-08-18T08:16:10.957Z,64.34
2017-08-18T08:18:39.358Z,63.13
2017-08-18T08:21:07.706Z,61.80
2017-08-18T08:23:36.392Z,61.16
2017-08-18T08:26:04.819Z,63.85
2017-08-18T08:28:33.939Z,65.87
2017-08-18T08:31:02.745Z,64.55
2017-08-18T08:33:31.131Z,63.76
2017-08-18T08:35:59.491Z,62.74
2017-08-18T08:38:28.634Z,64.11
2017-08-18T08:40:56.977Z,63.34
2017-08-18T08:43:56.294Z,62.38
2017-08-18T08:46:24.639Z,61.17
2017-08-18T08:48:52.976Z,63.21
2017-08-18T08:51:21.763Z,63.70
2017-08-18T08:53:50.932Z,65.26
2017-08-18T08:56:19.316Z,63.49
2017-08-18T08:58:48.181Z,64.42
2017-08-18T09:01:16.555Z,64.31
2017-08-18T09:03:44.908Z,62.67
2017-08-18T09:06:13.618Z,62.25
2017-08-18T09:08:41.996Z,62.35
2017-08-18T09:11:10.377Z,61.60
2017-08-18T09:13:39.017Z,61.32
2017-08-18T09:16:07.370Z,60.68
2017-08-18T09:18:35.732Z,60.07
2017-08-18T09:21:05.045Z,61.52
2017-08-18T09:23:33.407Z,62.97
2017-08-18T09:26:01.764Z,64.91
2017-08-18T09:28:30.607Z,64.91
2017-08-18T09:30:58.962Z,65.10
2017-08-18T09:33:27.351Z,65.24
2017-08-18T09:35:56.216Z,65.09
2017-08-18T09:38:24.549Z,64.89
2017-08-18T09:40:52.920Z,64.59
2017-08-18T09:43:21.983Z,66.26
2017-08-18T09:45:50.368Z,66.78
2017-08-18T09:48:37.086Z,67.48
2017-08-18T09:51:23.196Z,66.92
2017-08-18T09:54:09.660Z,68.29
2017-08-18T09:56:55.589Z,68.55
2017-08-18T09:59:24.461Z,67.29
2017-08-18T10:01:52.816Z,65.84
2017-08-18T10:04:21.224Z,66.00
2017-08-18T10:06:50.104Z,64.38
2017-08-18T10:09:18.484Z,63.90
2017-08-18T10:11:46.865Z,65.25
2017-08-18T10:14:15.515Z,65.44
2017-08-18T10:16:43.864Z,64.82
2017-08-18T10:19:12.279Z,65.18
2017-08-18T10:21:41.403Z,66.70
2017-08-18T10:24:09.780Z,66.58
2017-08-18T10:26:38.143Z,65.37
2017-08-18T10:29:07.051Z,64.90
2017-08-18T10:31:35.427Z,66.32
2017-08-18T10:34:03.778Z,67.94
2017-08-18T10:36:32.535Z,68.02
2017-08-18T10:39:00.919Z,66.66
2017-08-18T10:41:29.289Z,66.29
2017-08-18T10:43:58.110Z,68.21
2017-08-18T10:46:26.459Z,67.01
2017-08-18T10:48:55.423Z,66.43
2017-08-18T10:51:24.071Z,65.32
2017-08-18T10:53:52.455Z,65.73
2017-08-18T10:56:20.839Z,66.05
2017-08-18T10:58:49.647Z,65.53
2017-08-18T11:01:18.006Z,63.02
2017-08-18T11:03:46.340Z,64.39
2017-08-18T11:06:15.078Z,63.64
2017-08-18T11:08:43.447Z,63.93
2017-08-18T11:11:12.562Z,63.37
2017-08-18T11:13:41.176Z,64.34
2017-08-18T11:16:09.532Z,61.64
2017-08-18T11:18:37.903Z,61.38
2017-08-18T11:21:06.673Z,62.56
2017-08-18T11:23:35.018Z,64.34
2017-08-18T11:26:03.358Z,64.01
2017-08-18T11:28:32.248Z,64.96
2017-08-18T11:31:00.617Z,65.29
2017-08-18T11:33:28.974Z,65.01
2017-08-18T11:35:57.691Z,64.32
2017-08-18T11:38:26.090Z,64.35
2017-08-18T11:40:54.463Z,63.87
2017-08-18T11:43:23.144Z,65.46
2017-08-18T11:45:51.489Z,66.69
2017-08-18T11:48:20.631Z,67.05
2017-08-18T11:50:49.703Z,67.92
2017-08-18T11:53:18.087Z,67.16
2017-08-18T11:55:46.428Z,67.92
2017-08-18T11:58:15.270Z,67.98
2017-08-18T12:00:43.654Z,66.87
2017-08-18T12:03:11.999Z,66.44
2017-08-18T12:05:40.629Z,66.05
2017-08-18T12:08:08.971Z,64.66
2017-08-18T12:10:37.320Z,64.48
2017-08-18T12:13:07.174Z,63.71
2017-08-18T12:15:35.567Z,64.71
2017-08-18T12:18:03.915Z,65.67
2017-08-18T12:20:32.611Z,64.46
2017-08-18T12:23:00.946Z,62.37
2017-08-18T12:25:29.277Z,62.03
2017-08-18T12:27:58.060Z,61.03
2017-08-18T12:30:26.443Z,61.30
2017-08-18T12:32:54.797Z,61.71
2017-08-18T12:35:23.687Z,66.68
2017-08-18T12:37:52.067Z,68.14
2017-08-18T12:40:20.447Z,67.81
2017-08-18T12:42:49.085Z,68.08
2017-08-18T12:45:17.430Z,68.31
2017-08-18T12:47:45.805Z,68.32
2017-08-18T12:50:14.493Z,66.03
2017-08-18T12:52:42.858Z,65.00
2017-08-18T12:55:11.202Z,66.65
2017-08-18T12:57:40.254Z,65.24
2017-08-18T13:00:08.604Z,67.71
2017-08-18T13:02:36.964Z,68.93
2017-08-18T13:05:05.718Z,69.20
2017-08-18T13:07:34.096Z,66.99
2017-08-18T13:10:02.458Z,66.41
2017-08-18T13:12:31.089Z,67.56
2017-08-18T13:14:59.438Z,66.94
2017-08-18T13:17:27.798Z,65.78
2017-08-18T13:19:56.799Z,65.17
2017-08-18T13:22:25.192Z,65.05
2017-08-18T13:24:53.557Z,64.54
2017-08-18T13:27:22.417Z,65.41
2017-08-18T13:29:50.758Z,64.05
2017-08-18T13:32:19.113Z,65.31
2017-08-18T13:34:47.862Z,62.57
2017-08-18T13:37:16.260Z,62.51
2017-08-18T13:39:44.639Z,62.27
2017-08-18T13:42:13.365Z,62.90
2017-08-18T13:44:41.733Z,62.44
2017-08-18T13:47:10.084Z,62.25
2017-08-18T13:49:38.977Z,62.32
2017-08-18T13:52:07.326Z,63.15
2017-08-18T13:54:35.650Z,62.10
2017-08-18T13:57:04.427Z,62.73
2017-08-18T13:59:32.779Z,61.84
2017-08-18T14:02:01.886Z,61.43
2017-08-18T14:04:31.407Z,61.07
2017-08-18T14:06:59.734Z,61.63
2017-08-18T14:09:28.093Z,62.07
2017-08-18T14:11:56.758Z,61.34
2017-08-18T14:14:25.108Z,61.79
2017-08-18T14:16:53.491Z,62.05
2017-08-18T14:19:22.502Z,60.53
2017-08-18T14:21:50.951Z,60.04
2017-08-18T14:24:19.306Z,59.05
2017-08-18T14:26:53.883Z,58.85
2017-08-18T14:29:22.497Z,59.69
2017-08-18T14:31:50.850Z,59.49
2017-08-18T14:34:19.551Z,60.23
2017-08-18T14:36:47.919Z,60.51
2017-08-18T14:39:16.264Z,60.46
2017-08-18T14:41:45.766Z,61.79
2017-08-18T14:44:14.129Z,61.80
2017-08-18T14:46:42.487Z,61.04
2017-08-18T14:49:11.476Z,60.56
2017-08-18T14:51:39.844Z,60.59
2017-08-18T14:54:08.207Z,60.90
2017-08-18T14:56:36.928Z,62.21
2017-08-18T14:59:05.287Z,61.98
2017-08-18T15:01:33.981Z,60.56
2017-08-18T15:04:03.423Z,61.15
2017-08-18T15:06:31.791Z,60.79
2017-08-18T15:09:00.150Z,61.63
2017-08-18T15:11:29.095Z,62.11
2017-08-18T15:13:57.455Z,62.18
2017-08-18T15:16:25.805Z,62.82
2017-08-18T15:18:54.435Z,61.92
2017-08-18T15:21:23.543Z,62.07
2017-08-18T15:23:52.670Z,61.99
2017-08-18T15:26:21.439Z,61.97
2017-08-18T15:28:49.783Z,62.19
2017-08-18T15:31:18.131Z,63.63
2017-08-18T15:33:47.297Z,62.88
2017-08-18T15:36:15.642Z,63.46
2017-08-18T15:38:44.781Z,62.94
2017-08-18T15:41:13.772Z,62.32
2017-08-18T15:43:42.104Z,62.31
2017-08-18T15:46:10.447Z,63.28
2017-08-18T15:48:39.206Z,63.71
2017-08-18T15:51:07.551Z,63.83
2017-08-18T15:53:35.893Z,63.87
2017-08-18T15:56:04.799Z,64.01
2017-08-18T15:58:33.164Z,63.21
2017-08-18T16:01:01.511Z,62.53
2017-08-18T16:03:30.127Z,63.40
2017-08-18T16:05:58.468Z,62.40
2017-08-18T16:08:26.830Z,62.21
2017-08-18T16:10:55.572Z,62.56
2017-08-18T16:13:23.946Z,64.07
2017-08-18T16:15:52.286Z,64.16
2017-08-18T16:18:21.042Z,64.26
2017-08-18T16:20:49.420Z,65.32
2017-08-18T16:23:17.779Z,64.73
2017-08-18T16:25:46.487Z,65.07
2017-08-18T16:28:14.893Z,64.90
2017-08-18T16:30:43.273Z,64.32
2017-08-18T16:33:12.918Z,63.95
2017-08-18T16:35:41.255Z,64.98
2017-08-18T16:38:10.399Z,64.35
2017-08-18T16:40:39.087Z,63.73
2017-08-18T16:43:07.500Z,63.78
2017-08-18T16:45:35.871Z,64.54
2017-08-18T16:48:04.507Z,66.05
2017-08-18T16:50:32.859Z,64.45
2017-08-18T16:53:01.220Z,66.01
2017-08-18T16:55:29.879Z,66.45
2017-08-18T16:57:58.231Z,65.86
2017-08-18T17:00:26.570Z,65.87
2017-08-18T17:02:55.720Z,67.62
2017-08-18T17:05:24.068Z,67.57
2017-08-18T17:07:53.157Z,68.15
2017-08-18T17:10:21.961Z,67.57
2017-08-18T17:12:50.302Z,68.11
2017-08-18T17:15:18.663Z,68.72
2017-08-18T17:17:47.418Z,68.24
2017-08-18T17:20:15.803Z,67.37
2017-08-18T17:22:44.147Z,68.90
2017-08-18T17:25:12.968Z,69.09
2017-08-18T17:27:41.313Z,70.15
2017-08-18T17:30:09.670Z,69.35
2017-08-18T17:32:38.519Z,69.82
2017-08-18T17:35:06.874Z,71.05
2017-08-18T17:37:35.984Z,70.28
2017-08-18T17:40:04.615Z,70.13
2017-08-18T17:42:32.951Z,69.86
2017-08-18T17:45:01.282Z,70.03
2017-08-18T17:47:30.224Z,70.60
2017-08-18T17:49:58.583Z,70.63
2017-08-18T17:52:27.702Z,70.95
2017-08-18T17:54:56.706Z,72.40
2017-08-18T17:57:25.079Z,72.05
2017-08-18T17:59:53.422Z,71.63
2017-08-18T18:02:22.050Z,71.92
2017-08-18T18:04:50.398Z,71.36
2017-08-18T18:07:18.735Z,72.27
2017-08-18T18:09:47.668Z,71.60
2017-08-18T18:12:16.799Z,72.59
2017-08-18T18:14:45.156Z,73.07
2017-08-18T18:17:13.795Z,74.35
2017-08-18T18:19:42.162Z,74.75
2017-08-18T18:22:10.637Z,74.70
2017-08-18T18:24:39.303Z,74.98
2017-08-18T18:27:07.642Z,76.20
2017-08-18T18:29:35.982Z,76.38
2017-08-18T18:32:04.744Z,76.68
2017-08-18T18:34:33.095Z,76.61
2017-08-18T18:37:02.247Z,77.20
2017-08-18T18:39:31.017Z,76.81
2017-08-18T18:42:00.118Z,77.60
2017-08-18T18:44:30.603Z,76.60
2017-08-18T18:46:59.316Z,76.03
2017-08-18T18:49:27.683Z,75.97
2017-08-18T18:51:56.063Z,76.46
2017-08-18T18:54:25.048Z,78.15
2017-08-18T18:56:54.169Z,76.66
2017-08-18T18:59:22.548Z,76.09
2017-08-18T19:01:51.257Z,75.87
2017-08-18T19:04:19.643Z,75.73
2017-08-18T19:06:48.035Z,75.04
2017-08-18T19:09:16.630Z,75.83
2017-08-18T19:11:44.991Z,75.72
2017-08-18T19:14:13.355Z,75.36
2017-08-18T19:16:41.955Z,75.55
2017-08-18T19:19:10.323Z,75.74
2017-08-18T19:21:38.694Z,75.92
2017-08-18T19:24:07.281Z,75.53
2017-08-18T19:26:35.652Z,75.85
2017-08-18T19:29:03.987Z,76.61
2017-08-18T19:31:32.517Z,76.46
2017-08-18T19:34:00.874Z,76.87
2017-08-18T19:36:29.223Z,76.99
2017-08-18T19:38:58.938Z,76.40
2017-08-18T19:41:28.083Z,77.01
2017-08-18T19:43:56.440Z,76.30
2017-08-18T19:46:25.146Z,76.59
2017-08-18T19:48:53.507Z,77.56
2017-08-18T19:51:21.864Z,77.71
2017-08-18T19:53:50.582Z,77.32
2017-08-18T19:56:18.989Z,77.59
2017-08-18T19:58:47.379Z,77.08
2017-08-18T20:01:15.980Z,77.03
2017-08-18T20:03:44.321Z,75.61
2017-08-18T20:06:12.683Z,76.20
2017-08-18T20:08:41.283Z,76.55
2017-08-18T20:11:09.618Z,76.75
2017-08-18T20:13:37.966Z,76.43
2017-08-18T20:16:06.734Z,75.92
2017-08-18T20:18:35.102Z,75.24
2017-08-18T20:21:03.452Z,75.40
2017-08-18T20:23:32.318Z,74.49
2017-08-18T20:26:00.712Z,73.97
2017-08-18T20:28:29.837Z,74.88
2017-08-18T20:30:58.401Z,74.85
2017-08-18T20:33:26.802Z,75.18
2017-08-18T20:35:55.156Z,75.34
2017-08-18T20:38:23.893Z,76.26
2017-08-18T20:40:52.246Z,76.87
2017-08-18T20:43:20.606Z,77.92
2017-08-18T20:45:49.288Z,76.45
2017-08-18T20:48:17.651Z,76.12
2017-08-18T20:50:46.004Z,76.35
2017-08-18T20:53:14.767Z,75.12
2017-08-18T20:55:43.110Z,75.88
2017-08-18T20:58:11.481Z,74.43
2017-08-18T21:00:40.212Z,74.85
2017-08-18T21:03:08.553Z,74.41
2017-08-18T21:05:37.690Z,75.82
2017-08-18T21:08:06.367Z,75.10
2017-08-18T21:10:34.710Z,75.70
2017-08-18T21:13:03.065Z,75.15
2017-08-18T21:15:31.920Z,76.55
2017-08-18T21:18:00.289Z,76.70
2017-08-18T21:20:28.672Z,75.81
2017-08-18T21:22:57.353Z,75.62
2017-08-18T21:25:25.764Z,75.79
2017-08-18T21:27:54.117Z,76.37
2017-08-18T21:30:23.001Z,76.54
2017-08-18T21:32:51.352Z,76.45
2017-08-18T21:35:20.474Z,75.97
2017-08-18T21:37:49.026Z,74.86
2017-08-18T21:40:17.378Z,76.64
2017-08-18T21:42:45.774Z,76.30
2017-08-18T21:45:14.522Z,75.98
2017-08-18T21:47:42.915Z,75.23
2017-08-18T21:50:11.283Z,75.74
2017-08-18T21:52:39.869Z,74.76
2017-08-18T21:55:08.207Z,73.10
2017-08-18T21:57:36.556Z,73.07
2017-08-18T22:00:05.207Z,72.97
2017-08-18T22:02:33.575Z,73.19
2017-08-18T22:05:01.937Z,73.64
2017-08-18T22:07:30.509Z,73.53
2017-08-18T22:09:59.640Z,73.64
2017-08-18T22:12:27.976Z,74.91
2017-08-18T22:14:56.708Z,74.35
2017-08-18T22:17:25.071Z,74.35
2017-08-18T22:19:53.418Z,75.06
2017-08-18T22:22:21.949Z,75.49
2017-08-18T22:24:50.308Z,75.04
2017-08-18T22:27:18.657Z,74.46
2017-08-18T22:29:47.239Z,74.24
2017-08-18T22:32:15.601Z,74.40
2017-08-18T22:34:43.943Z,75.05
2017-08-18T22:37:12.826Z,76.17
2017-08-18T22:39:41.195Z,75.23
2017-08-18T22:42:10.311Z,74.87
2017-08-18T22:44:39.241Z,75.49
2017-08-18T22:47:07.596Z,76.40
2017-08-18T22:49:35.978Z,76.65
2017-08-18T22:52:04.536Z,76.29
2017-08-18T22:54:32.885Z,77.66
2017-08-18T22:57:01.262Z,78.35
2017-08-18T22:59:29.947Z,77.43
2017-08-18T23:01:58.312Z,76.46
2017-08-18T23:04:26.644Z,76.65
2017-08-18T23:06:55.439Z,77.26
2017-08-18T23:09:23.869Z,78.78
2017-08-18T23:11:52.227Z,78.16
2017-08-18T23:14:20.883Z,78.77
2017-08-18T23:16:49.263Z,79.16
2017-08-18T23:19:17.627Z,78.63
2017-08-18T23:21:46.743Z,78.89
2017-08-18T23:24:15.115Z,79.16
2017-08-18T23:26:43.463Z,81.24
2017-08-18T23:29:12.166Z,80.70
2017-08-18T23:31:40.509Z,80.65
2017-08-18T23:34:08.851Z,80.31
2017-08-18T23:36:37.614Z,80.46
2017-08-18T23:39:06.006Z,80.56
2017-08-18T23:41:34.351Z,80.34
2017-08-18T23:44:03.218Z,81.06
2017-08-18T23:46:31.566Z,80.70
2017-08-18T23:48:59.923Z,80.62
2017-08-18T23:51:28.468Z,81.33
2017-08-18T23:53:56.842Z,81.65
2017-08-18T23:56:25.240Z,81.65
2017-08-18T23:58:53.780Z,80.82
